Time;durP1;ratioP1;P1;durP2;ratioP2;P2;SDS_P1;SDS_P2;PMS_P1;PMS_P2;Temp;Humidity;BMP_temperature;BMP_pressure;BME280_temperature;BME280_humidity;BME280_pressure;Samples;Min_cycle;Max_cycle;Signal;HPM_P1;HPM_P2
2022/11/13 00:00:17;;;;;;;10.47;9.40;;;9.90;99.90;;;;;;4957214;29;20174;-75
2022/11/13 00:02:43;;;;;;;14.87;10.47;;;9.80;99.90;;;;;;4957291;29;20466;-75
2022/11/13 00:05:09;;;;;;;11.90;9.37;;;9.80;99.90;;;;;;4957025;29;20241;-72
2022/11/13 00:07:34;;;;;;;12.60;9.50;;;9.80;99.90;;;;;;4956576;29;20183;-73
2022/11/13 00:10:00;;;;;;;10.13;8.60;;;9.80;99.90;;;;;;4956793;29;20183;-73
2022/11/13 00:12:25;;;;;;;13.00;9.27;;;9.80;99.90;;;;;;4956564;29;20178;-73
2022/11/13 00:14:51;;;;;;;12.53;10.60;;;9.90;99.90;;;;;;4957007;29;20197;-73
2022/11/13 00:17:16;;;;;;;15.03;10.50;;;9.80;99.90;;;;;;4956350;29;20653;-73
2022/11/13 00:19:42;;;;;;;13.17;9.87;;;9.80;99.90;;;;;;4956502;29;20178;-73
2022/11/13 00:22:07;;;;;;;16.50;9.63;;;9.80;99.90;;;;;;4956504;29;20662;-73
2022/11/13 00:24:33;;;;;;;14.77;10.70;;;9.70;99.90;;;;;;4956240;29;20552;-73
2022/11/13 00:26:58;;;;;;;11.90;9.50;;;9.70;99.90;;;;;;4956400;29;20194;-73
2022/11/13 00:29:24;;;;;;;13.73;10.10;;;9.70;99.90;;;;;;4956342;29;20540;-73
2022/11/13 00:31:49;;;;;;;10.63;9.00;;;9.70;99.90;;;;;;4956142;29;20702;-73
2022/11/13 00:34:15;;;;;;;17.97;10.30;;;9.70;99.90;;;;;;4939010;29;20253;-73
2022/11/13 00:36:40;;;;;;;10.57;8.53;;;9.70;99.90;;;;;;4956092;29;20178;-73
2022/11/13 00:39:06;;;;;;;13.10;8.77;;;9.80;99.90;;;;;;4956176;29;20230;-71
2022/11/13 00:41:32;;;;;;;12.03;9.57;;;9.70;99.90;;;;;;4955958;29;20272;-71
2022/11/13 00:43:57;;;;;;;9.33;8.43;;;9.70;99.90;;;;;;4956057;29;20198;-71
2022/11/13 00:46:23;;;;;;;13.17;9.00;;;9.70;99.90;;;;;;4955924;29;20591;-71
2022/11/13 00:48:48;;;;;;;12.40;9.30;;;9.60;99.90;;;;;;4955867;28;20188;-71
2022/11/13 00:51:14;;;;;;;13.70;10.47;;;9.60;99.90;;;;;;4955240;29;20605;-71
2022/11/13 00:53:39;;;;;;;15.57;9.70;;;9.60;99.90;;;;;;4955902;29;20222;-71
2022/11/13 00:56:05;;;;;;;14.00;10.00;;;9.60;99.90;;;;;;4955771;29;20306;-72
2022/11/13 00:58:31;;;;;;;13.57;10.43;;;9.60;99.90;;;;;;4955705;29;20202;-73
2022/11/13 01:01:06;;;;;;;12.70;10.00;;;9.60;99.90;;;;;;4955580;29;20182;-71
2022/11/13 01:03:32;;;;;;;14.53;9.00;;;9.50;99.90;;;;;;4938268;29;20281;-71
2022/11/13 01:05:57;;;;;;;13.00;10.73;;;9.50;99.90;;;;;;4955552;29;20521;-71
2022/11/13 01:08:23;;;;;;;14.63;10.03;;;9.50;99.90;;;;;;4955326;29;20182;-71
2022/11/13 01:10:48;;;;;;;14.03;10.47;;;9.50;99.90;;;;;;4955644;29;20183;-71
2022/11/13 01:13:15;;;;;;;16.30;9.73;;;9.40;99.90;;;;;;4954993;29;20183;-72
2022/11/13 01:15:42;;;;;;;12.57;10.77;;;9.40;99.90;;;;;;4956229;29;20210;-72
2022/11/13 01:18:07;;;;;;;12.53;9.30;;;9.40;99.90;;;;;;4956225;29;20426;-72
2022/11/13 01:20:33;;;;;;;13.43;12.03;;;9.30;99.90;;;;;;4956027;29;20445;-72
2022/11/13 01:22:59;;;;;;;17.20;10.57;;;9.30;99.90;;;;;;4956073;29;20230;-72
2022/11/13 01:25:25;;;;;;;16.00;10.77;;;9.30;99.90;;;;;;4956098;29;20253;-72
2022/11/13 01:27:51;;;;;;;12.47;10.17;;;9.30;99.90;;;;;;4956209;29;20218;-72
2022/11/13 01:30:17;;;;;;;14.30;10.03;;;9.20;99.90;;;;;;4955886;29;20497;-71
2022/11/13 01:32:42;;;;;;;12.40;10.30;;;9.30;99.90;;;;;;4955885;29;20190;-71
2022/11/13 05:31:06;;;;;;;11.23;7.30;;;7.30;99.90;;;;;;5645164;23;21069;-81
2022/11/13 05:33:32;;;;;;;8.83;7.33;;;7.30;99.90;;;;;;4975326;28;20441;-80
2022/11/13 05:36:10;;;;;;;8.97;7.20;;;7.40;99.90;;;;;;4975315;28;20436;-80
2022/11/13 05:38:36;;;;;;;11.53;7.50;;;7.20;99.90;;;;;;4975510;28;20178;-78
2022/11/13 05:41:07;;;;;;;7.70;6.57;;;7.20;99.90;;;;;;4975225;28;20792;-79
2022/11/13 05:43:33;;;;;;;7.20;6.40;;;7.20;99.90;;;;;;4975155;28;20194;-78
2022/11/13 05:46:05;;;;;;;9.40;8.30;;;7.20;99.90;;;;;;4975205;28;20432;-78
2022/11/13 05:48:31;;;;;;;8.50;6.70;;;7.10;99.90;;;;;;4975117;28;20441;-80
2022/11/13 05:51:05;;;;;;;9.00;6.40;;;7.20;99.90;;;;;;4957990;28;20893;-81
2022/11/13 05:53:32;;;;;;;11.30;6.60;;;7.20;99.90;;;;;;4975001;28;20433;-80
2022/11/13 05:56:13;;;;;;;8.30;6.90;;;7.20;99.90;;;;;;4975015;28;20425;-81
2022/11/13 05:58:40;;;;;;;8.97;6.93;;;7.20;99.90;;;;;;4974938;28;20902;-81
2022/11/13 06:01:14;;;;;;;8.77;6.40;;;7.20;99.90;;;;;;4974854;28;20528;-84
2022/11/13 06:03:41;;;;;;;7.20;6.50;;;7.20;99.90;;;;;;4974971;28;20794;-80
2022/11/13 06:06:09;;;;;;;8.20;6.97;;;7.20;99.90;;;;;;4974845;28;20967;-80
2022/11/13 06:08:35;;;;;;;9.40;6.90;;;7.30;99.90;;;;;;4974760;28;20436;-80
2022/11/13 06:11:03;;;;;;;9.80;6.60;;;7.20;99.90;;;;;;4974767;28;20451;-81
2022/11/13 06:13:29;;;;;;;9.40;6.77;;;7.20;99.90;;;;;;4974509;28;20433;-81
2022/11/13 06:16:03;;;;;;;10.10;7.20;;;7.20;99.90;;;;;;4974723;28;20457;-81
2022/11/13 06:18:29;;;;;;;7.57;6.77;;;7.20;99.90;;;;;;4974552;28;20552;-85
2022/11/13 06:20:59;;;;;;;11.53;6.53;;;7.20;99.90;;;;;;4974615;28;20982;-80
2022/11/13 06:23:24;;;;;;;9.20;7.10;;;7.20;99.90;;;;;;4974510;28;20223;-82
2022/11/13 06:25:50;;;;;;;12.30;7.40;;;7.20;99.90;;;;;;4974628;28;20425;-80
2022/11/13 06:28:15;;;;;;;10.17;8.10;;;7.20;99.90;;;;;;4974491;28;20400;-81
2022/11/13 06:30:41;;;;;;;8.17;7.33;;;7.30;99.90;;;;;;4974350;28;20225;-79
2022/11/13 06:33:06;;;;;;;12.10;8.97;;;7.20;99.90;;;;;;4974488;28;20192;-80
2022/11/13 06:35:32;;;;;;;13.00;8.23;;;7.20;99.90;;;;;;4974365;28;20198;-79
2022/11/13 06:37:58;;;;;;;13.40;9.97;;;7.20;99.90;;;;;;4974294;28;20191;-82
2022/11/13 06:40:23;;;;;;;14.03;9.70;;;7.20;99.90;;;;;;4973899;28;20952;-82
2022/11/13 06:42:49;;;;;;;13.40;10.23;;;7.30;99.90;;;;;;4974328;28;20673;-81
2022/11/13 06:45:14;;;;;;;14.60;10.77;;;7.30;99.90;;;;;;4974260;28;20177;-80
2022/11/13 06:47:40;;;;;;;16.37;9.37;;;7.30;99.90;;;;;;4973910;28;20330;-81
2022/11/13 06:50:06;;;;;;;14.10;9.10;;;7.30;99.90;;;;;;4974209;28;20700;-81
2022/11/13 06:52:33;;;;;;;14.10;10.00;;;7.30;99.90;;;;;;4974205;28;20637;-80
2022/11/13 06:55:00;;;;;;;12.70;9.17;;;7.30;99.90;;;;;;4974218;28;20421;-81
2022/11/13 06:57:26;;;;;;;17.57;10.57;;;7.30;99.90;;;;;;4973865;28;20441;-82
2022/11/13 06:59:51;;;;;;;14.83;10.90;;;7.30;99.90;;;;;;4974125;28;20934;-84
2022/11/13 07:02:17;;;;;;;16.17;12.30;;;7.30;99.90;;;;;;4973905;28;20480;-81
2022/11/13 07:04:42;;;;;;;16.73;10.93;;;7.30;99.90;;;;;;4974134;28;20178;-81
2022/11/13 07:07:08;;;;;;;17.40;11.47;;;7.30;99.90;;;;;;4974042;28;20273;-83
2022/11/13 07:09:33;;;;;;;20.23;11.33;;;7.40;99.90;;;;;;4974330;28;20574;-81
2022/11/13 07:11:59;;;;;;;14.47;11.03;;;7.40;99.90;;;;;;4974068;28;20602;-80
2022/11/13 07:14:24;;;;;;;17.30;12.27;;;7.40;99.90;;;;;;4974279;28;20304;-83
2022/11/13 07:16:50;;;;;;;13.60;10.17;;;7.40;99.90;;;;;;4974009;28;20174;-82
2022/11/13 07:19:15;;;;;;;15.57;10.93;;;7.30;99.90;;;;;;4973892;28;20228;-83
2022/11/13 07:21:41;;;;;;;16.63;10.50;;;7.30;99.90;;;;;;4973890;28;20620;-84
2022/11/13 07:24:06;;;;;;;12.80;10.20;;;7.30;99.90;;;;;;4973963;28;20205;-82
2022/11/13 07:26:32;;;;;;;18.00;12.80;;;7.30;99.90;;;;;;4973996;28;20182;-82
2022/11/13 07:28:57;;;;;;;13.30;10.50;;;7.30;99.90;;;;;;4973982;28;20174;-82
2022/11/13 07:31:23;;;;;;;16.43;11.67;;;7.30;99.90;;;;;;4973816;28;20236;-85
2022/11/13 07:33:50;;;;;;;14.97;10.23;;;7.30;99.90;;;;;;4973868;28;20236;-82
2022/11/13 07:36:15;;;;;;;13.23;10.90;;;7.40;99.90;;;;;;4964036;28;20193;-81
2022/11/13 07:38:41;;;;;;;13.00;9.30;;;7.60;99.90;;;;;;4955534;28;20426;-81
2022/11/13 07:41:06;;;;;;;15.50;12.53;;;7.70;99.90;;;;;;4954563;29;20269;-83
2022/11/13 07:43:33;;;;;;;16.13;11.40;;;7.70;99.90;;;;;;4954204;28;20221;-81
2022/11/13 07:45:59;;;;;;;15.77;11.50;;;7.70;99.90;;;;;;4954376;29;20547;-81
2022/11/13 07:48:26;;;;;;;14.17;10.27;;;7.60;99.90;;;;;;4954483;29;20437;-81
2022/11/13 07:50:52;;;;;;;15.53;11.23;;;7.60;99.90;;;;;;4967300;28;20441;-82
2022/11/13 07:53:18;;;;;;;16.23;12.10;;;7.60;99.90;;;;;;4973744;28;20437;-81
2022/11/13 07:55:44;;;;;;;16.40;11.33;;;7.60;99.90;;;;;;4973595;28;20438;-81
2022/11/13 07:58:10;;;;;;;15.37;9.90;;;7.60;99.90;;;;;;4973516;28;20931;-77
2022/11/13 08:00:36;;;;;;;14.57;10.50;;;7.70;99.90;;;;;;4975433;28;20462;-78
2022/11/13 08:03:11;;;;;;;14.07;10.27;;;7.70;99.90;;;;;;4976833;28;20486;-79
2022/11/13 08:05:38;;;;;;;14.20;9.77;;;7.70;99.90;;;;;;4976803;28;20200;-81
2022/11/13 08:08:04;;;;;;;12.17;9.70;;;7.80;99.90;;;;;;4976796;28;20437;-79
2022/11/13 08:10:30;;;;;;;12.73;11.27;;;7.80;99.90;;;;;;4976733;28;20445;-82
2022/11/13 08:13:01;;;;;;;15.73;11.13;;;7.80;99.90;;;;;;4976734;28;20185;-81
2022/11/13 08:15:28;;;;;;;19.33;17.57;;;8.00;99.90;;;;;;4976655;28;20185;-78
2022/11/13 08:17:57;;;;;;;15.83;11.40;;;8.20;99.90;;;;;;4976766;28;20429;-80
2022/11/13 08:20:24;;;;;;;13.33;10.93;;;8.30;99.90;;;;;;4976250;28;20461;-79
2022/11/13 08:22:50;;;;;;;12.10;10.90;;;8.50;99.90;;;;;;4976729;28;20568;-82
2022/11/13 08:25:16;;;;;;;13.10;9.93;;;8.70;99.90;;;;;;4976366;28;20429;-79
2022/11/13 08:27:42;;;;;;;18.00;11.43;;;8.80;99.90;;;;;;4976562;28;20433;-76
2022/11/13 08:30:08;;;;;;;11.47;9.60;;;8.90;99.90;;;;;;4976597;28;20844;-75
2022/11/13 08:32:33;;;;;;;15.50;10.10;;;8.90;99.90;;;;;;4976241;28;20232;-77
2022/11/13 08:34:59;;;;;;;15.07;11.30;;;9.00;99.90;;;;;;4976544;28;20951;-74
2022/11/13 08:37:24;;;;;;;13.67;10.07;;;9.10;99.90;;;;;;4976422;28;20629;-73
2022/11/13 08:39:50;;;;;;;12.50;10.03;;;9.20;99.90;;;;;;4976379;28;20170;-73
2022/11/13 08:42:16;;;;;;;13.73;11.10;;;9.40;99.90;;;;;;4965112;28;20218;-73
2022/11/13 08:44:41;;;;;;;12.03;10.00;;;9.50;99.90;;;;;;4966083;28;20241;-73
2022/11/13 08:47:07;;;;;;;12.63;11.00;;;9.60;99.90;;;;;;4966972;28;20184;-73
2022/11/13 08:49:32;;;;;;;12.77;10.87;;;9.80;99.90;;;;;;4964472;28;20631;-74
2022/11/13 08:51:58;;;;;;;15.70;10.00;;;9.90;99.90;;;;;;4965218;28;20289;-75
2022/11/13 08:54:24;;;;;;;10.57;9.00;;;10.00;99.90;;;;;;4966130;28;20698;-77
2022/11/13 08:56:49;;;;;;;11.77;9.93;;;10.10;99.90;;;;;;4966341;28;20178;-80
2022/11/13 08:59:15;;;;;;;13.53;10.17;;;10.30;99.90;;;;;;4965567;28;20173;-79
2022/11/13 09:01:41;;;;;;;10.07;8.40;;;10.40;99.90;;;;;;4966910;28;20282;-77
2022/11/13 09:04:06;;;;;;;12.80;9.83;;;10.60;99.90;;;;;;4965039;28;20171;-80
2022/11/13 09:06:32;;;;;;;14.23;8.83;;;10.70;99.90;;;;;;4966140;28;20638;-81
2022/11/13 09:08:58;;;;;;;13.83;9.40;;;10.80;99.90;;;;;;4966339;28;20179;-77
2022/11/13 09:11:26;;;;;;;11.00;9.40;;;11.00;99.90;;;;;;4964077;28;20564;-80
2022/11/13 09:13:52;;;;;;;11.43;9.13;;;11.10;99.90;;;;;;4967708;28;20780;-85
2022/11/13 09:16:18;;;;;;;12.33;8.87;;;11.30;99.90;;;;;;4968568;28;20422;-84
2022/11/13 09:18:43;;;;;;;12.10;9.20;;;11.40;99.90;;;;;;4966671;28;20891;-81
2022/11/13 09:21:09;;;;;;;12.10;10.00;;;11.60;99.90;;;;;;4964963;28;20178;-83
2022/11/13 09:23:35;;;;;;;12.47;8.80;;;11.70;99.90;;;;;;4965193;28;20292;-91
2022/11/13 09:26:02;;;;;;;13.80;9.40;;;11.80;99.90;;;;;;4967646;28;20484;-84
2022/11/13 09:28:28;;;;;;;11.27;9.00;;;11.90;99.90;;;;;;4963490;28;20178;-86
2022/11/13 09:30:53;;;;;;;13.83;9.70;;;12.00;99.90;;;;;;4961955;28;20582;-88
2022/11/13 09:33:19;;;;;;;13.30;9.77;;;12.00;99.90;;;;;;4965101;28;20242;-80
2022/11/13 09:35:45;;;;;;;17.07;12.43;;;12.10;99.90;;;;;;4963689;28;20233;-83
2022/11/13 09:38:13;;;;;;;17.00;10.53;;;12.10;99.90;;;;;;4964251;28;20179;-83
2022/11/13 09:40:42;;;;;;;17.33;12.10;;;12.20;99.90;;;;;;4962948;28;20183;-81
2022/11/13 09:43:19;;;;;;;13.10;10.53;;;12.30;99.90;;;;;;4963963;28;20465;-83
2022/11/13 09:45:45;;;;;;;12.67;9.57;;;12.40;99.90;;;;;;4963368;28;20442;-82
2022/11/13 09:48:33;;;;;;;13.50;10.33;;;12.40;99.90;;;;;;4966406;28;20484;-90
2022/11/13 09:51:05;;;;;;;10.20;9.20;;;12.50;99.90;;;;;;4966260;28;20457;-92
2022/11/13 09:53:35;;;;;;;12.43;10.90;;;12.60;99.90;;;;;;4965427;28;20495;-89
2022/11/13 09:56:22;;;;;;;12.70;9.23;;;12.70;99.90;;;;;;4964909;28;20785;-84
2022/11/13 09:59:00;;;;;;;11.00;9.17;;;12.70;99.90;;;;;;4962282;28;20438;-86
2022/11/13 10:01:52;;;;;;;10.00;8.67;;;12.80;99.90;;;;;;4959258;28;20440;-82
2022/11/13 10:04:26;;;;;;;9.50;8.40;;;12.80;99.90;;;;;;4963664;28;20510;-88
2022/11/13 10:07:01;;;;;;;8.90;8.00;;;12.80;99.90;;;;;;4963015;28;20430;-87
2022/11/13 10:09:26;;;;;;;9.93;8.30;;;12.90;99.90;;;;;;4963321;28;21136;-86
2022/11/13 10:11:57;;;;;;;9.33;7.97;;;13.00;99.90;;;;;;4962283;28;20418;-80
2022/11/13 10:14:28;;;;;;;8.90;7.77;;;13.00;99.90;;;;;;4964151;28;20182;-79
2022/11/13 10:17:05;;;;;;;10.70;9.33;;;13.10;99.90;;;;;;4964690;28;20850;-80
2022/11/13 10:19:40;;;;;;;12.50;9.40;;;13.20;99.90;;;;;;4964932;28;20432;-86
2022/11/13 10:22:19;;;;;;;10.23;8.60;;;13.20;99.90;;;;;;4964932;28;20592;-87
2022/11/13 10:24:48;;;;;;;17.70;8.77;;;13.30;99.90;;;;;;4963019;28;20782;-77
2022/11/13 10:27:15;;;;;;;11.17;10.10;;;13.60;99.90;;;;;;4962079;28;20426;-78
2022/11/13 10:29:41;;;;;;;10.80;8.83;;;13.70;99.90;;;;;;4963928;28;20618;-76
2022/11/13 10:32:17;;;;;;;12.00;9.80;;;13.80;99.90;;;;;;4963597;28;20473;-76
2022/11/13 10:34:48;;;;;;;12.93;8.87;;;13.90;99.90;;;;;;4963307;28;20521;-77
2022/11/13 10:37:20;;;;;;;8.43;7.13;;;14.00;99.90;;;;;;4962458;28;20992;-78
2022/11/13 10:39:46;;;;;;;9.50;7.57;;;14.10;99.90;;;;;;4963112;28;20785;-79
2022/11/13 10:42:27;;;;;;;10.20;8.23;;;14.20;99.90;;;;;;4964156;28;20473;-79
2022/11/13 10:44:56;;;;;;;9.50;8.60;;;14.30;99.90;;;;;;4964273;28;20201;-78
2022/11/13 10:47:24;;;;;;;10.30;9.30;;;14.40;99.90;;;;;;4962993;28;20414;-77
2022/11/13 10:49:50;;;;;;;9.77;8.70;;;14.50;99.90;;;;;;4962396;28;20512;-73
2022/11/13 10:52:27;;;;;;;9.87;7.53;;;14.70;99.90;;;;;;4964177;28;20424;-73
2022/11/13 10:55:19;;;;;;;7.53;6.77;;;14.80;99.90;;;;;;4964277;28;20173;-72
2022/11/13 10:57:57;;;;;;;7.93;6.87;;;14.90;99.90;;;;;;4963435;28;20448;-77
2022/11/13 11:00:43;;;;;;;13.43;8.27;;;15.00;99.90;;;;;;4963011;28;20859;-78
2022/11/13 11:03:17;;;;;;;11.30;8.23;;;15.10;99.90;;;;;;4963652;28;20528;-76
2022/11/13 11:05:55;;;;;;;8.13;6.53;;;15.20;99.90;;;;;;4962965;28;20940;-75
2022/11/13 11:08:34;;;;;;;9.77;8.77;;;15.30;99.90;;;;;;4962219;28;20430;-76
2022/11/13 11:13:50;;;;;;;8.03;7.00;;;15.50;99.90;;;;;;4963642;28;20442;-75
2022/11/13 11:16:20;;;;;;;9.90;6.90;;;15.60;99.90;;;;;;4962594;28;20431;-76
2022/11/13 11:19:09;;;;;;;8.57;6.53;;;15.70;99.90;;;;;;4957374;28;20194;-72
2022/11/13 11:21:37;;;;;;;7.60;6.80;;;15.80;99.90;;;;;;4953782;29;20414;-74
2022/11/13 11:24:13;;;;;;;12.13;6.73;;;16.00;99.90;;;;;;4954965;28;20438;-75
2022/11/13 11:26:48;;;;;;;7.23;6.53;;;16.20;99.90;;;;;;4953080;29;20920;-74
2022/11/13 11:29:20;;;;;;;7.77;6.17;;;16.50;99.90;;;;;;4958913;28;20442;-74
2022/11/13 11:32:08;;;;;;;13.93;11.80;;;16.70;99.90;;;;;;4963846;28;20480;-73
2022/11/13 11:34:41;;;;;;;10.63;9.27;;;17.00;99.90;;;;;;4962181;28;20435;-73
2022/11/13 11:37:20;;;;;;;8.83;6.47;;;17.20;99.90;;;;;;4967743;28;20521;-73
2022/11/13 11:40:01;;;;;;;8.73;6.20;;;17.50;98.00;;;;;;4967673;28;20440;-73
2022/11/13 11:42:48;;;;;;;6.90;5.40;;;17.70;96.40;;;;;;4965388;28;20469;-73
2022/11/13 11:45:24;;;;;;;6.80;6.00;;;17.90;95.70;;;;;;4965917;28;20445;-73
2022/11/13 11:47:52;;;;;;;6.00;4.63;;;18.00;93.80;;;;;;4965095;28;20425;-73
2022/11/13 11:50:50;;;;;;;8.63;5.30;;;18.10;92.50;;;;;;4966711;28;20511;-73
2022/11/13 11:53:33;;;;;;;6.67;5.80;;;18.20;92.40;;;;;;4935040;28;20436;-74
2022/11/13 11:56:33;;;;;;;7.87;5.50;;;18.20;91.60;;;;;;4966857;28;20943;-73
2022/11/13 11:59:30;;;;;;;11.03;5.90;;;18.20;91.30;;;;;;4933100;28;20489;-80
2022/11/13 12:02:33;;;;;;;7.40;5.80;;;18.20;91.90;;;;;;4964515;28;20945;-74
2022/11/13 12:05:18;;;;;;;7.03;5.97;;;18.20;91.60;;;;;;4962840;28;20440;-75
2022/11/13 12:08:06;;;;;;;6.30;5.23;;;18.10;91.10;;;;;;4960703;28;21158;-72
2022/11/13 12:10:43;;;;;;;7.33;5.60;;;18.00;91.90;;;;;;4968039;28;20509;-72
2022/11/13 12:13:12;;;;;;;5.30;4.80;;;17.90;91.90;;;;;;4965440;28;20432;-70
2022/11/13 12:16:06;;;;;;;7.13;4.87;;;17.80;91.00;;;;;;4965397;28;20425;-70
2022/11/13 12:18:41;;;;;;;9.07;6.00;;;17.70;91.40;;;;;;4962781;28;20513;-71
2022/11/13 12:21:22;;;;;;;8.03;6.43;;;17.70;92.00;;;;;;4961084;28;20428;-70
2022/11/13 12:23:58;;;;;;;10.13;5.33;;;17.60;92.20;;;;;;4963817;28;20609;-70
2022/11/13 12:26:29;;;;;;;5.93;5.10;;;17.60;92.70;;;;;;4960438;28;20433;-70
2022/11/13 12:29:09;;;;;;;6.30;5.10;;;17.50;92.50;;;;;;4968583;28;20437;-70
2022/11/13 12:32:03;;;;;;;7.43;6.43;;;17.50;92.70;;;;;;4969799;28;20737;-71
2022/11/13 12:34:46;;;;;;;6.63;5.70;;;17.40;93.60;;;;;;4963876;28;20429;-70
2022/11/13 12:37:17;;;;;;;7.00;6.30;;;17.40;93.00;;;;;;4965029;28;20808;-71
2022/11/13 12:40:02;;;;;;;7.97;6.00;;;17.30;93.40;;;;;;4963024;28;20485;-71
2022/11/13 12:42:46;;;;;;;7.30;6.57;;;17.20;94.30;;;;;;4965608;28;20565;-72
2022/11/13 12:45:26;;;;;;;6.00;4.50;;;17.20;95.00;;;;;;4971736;28;20432;-72
2022/11/13 12:47:52;;;;;;;10.13;5.17;;;17.10;94.20;;;;;;4959465;28;20450;-72
2022/11/13 12:50:27;;;;;;;7.20;5.13;;;17.00;92.60;;;;;;4969986;28;20433;-71
2022/11/13 12:52:58;;;;;;;5.90;5.33;;;16.90;93.30;;;;;;4945716;28;20908;-72
2022/11/13 12:55:29;;;;;;;6.93;6.10;;;16.90;93.00;;;;;;4961740;28;20426;-71
2022/11/13 12:58:16;;;;;;;7.50;6.10;;;16.70;93.20;;;;;;4972009;28;20473;-71
2022/11/13 13:00:53;;;;;;;7.40;6.70;;;16.60;93.80;;;;;;4946102;28;20435;-70
2022/11/13 13:03:37;;;;;;;8.60;6.70;;;16.60;94.10;;;;;;4946663;29;20985;-71
2022/11/13 13:06:27;;;;;;;6.77;6.10;;;16.60;95.00;;;;;;4971800;28;20460;-70
2022/11/13 13:09:21;;;;;;;9.97;7.53;;;16.60;95.30;;;;;;4962635;28;20828;-70
2022/11/13 13:11:55;;;;;;;6.33;5.60;;;16.50;95.00;;;;;;4960084;28;20844;-70
2022/11/13 13:14:51;;;;;;;10.30;7.23;;;16.50;95.70;;;;;;4962402;28;20434;-72
2022/11/13 13:17:22;;;;;;;7.63;6.30;;;16.60;95.90;;;;;;4959383;28;20445;-71
2022/11/13 13:20:17;;;;;;;6.73;5.87;;;16.60;96.30;;;;;;4971889;28;20440;-72
2022/11/13 13:22:55;;;;;;;6.70;5.97;;;16.60;97.60;;;;;;4908087;29;20565;-75
2022/11/13 13:25:25;;;;;;;7.07;6.33;;;16.60;96.90;;;;;;4968189;28;20495;-78
2022/11/13 13:28:21;;;;;;;8.53;5.77;;;16.60;97.50;;;;;;4975454;28;20476;-78
2022/11/13 13:31:10;;;;;;;5.70;5.20;;;16.60;98.20;;;;;;4975410;28;20854;-76
2022/11/13 13:34:11;;;;;;;5.50;4.90;;;16.70;98.90;;;;;;4975340;28;20448;-75
2022/11/13 13:36:41;;;;;;;5.40;4.20;;;16.60;97.70;;;;;;4956390;28;20461;-78
2022/11/13 13:39:18;;;;;;;4.83;4.17;;;16.60;97.00;;;;;;4968595;28;20523;-77
2022/11/13 13:42:28;;;;;;;4.17;3.77;;;16.50;97.60;;;;;;4966532;28;20505;-75
2022/11/13 13:45:05;;;;;;;5.40;3.63;;;16.50;97.00;;;;;;4883799;29;20508;-79
2022/11/13 13:47:37;;;;;;;3.63;3.33;;;16.40;95.20;;;;;;4953590;28;20442;-73
2022/11/13 13:50:06;;;;;;;4.70;3.80;;;16.40;95.20;;;;;;4964382;28;20445;-73
2022/11/13 13:52:33;;;;;;;4.77;4.30;;;16.40;95.60;;;;;;4964003;28;20525;-73
2022/11/13 13:55:02;;;;;;;6.00;4.50;;;16.40;95.80;;;;;;4964815;28;20776;-75
2022/11/13 13:57:29;;;;;;;7.40;5.17;;;16.30;95.50;;;;;;4965867;28;20496;-75
2022/11/13 13:59:55;;;;;;;5.20;3.97;;;16.20;95.70;;;;;;4964144;28;20462;-75
2022/11/13 14:02:22;;;;;;;5.03;3.90;;;16.20;95.10;;;;;;4964385;28;20477;-76
2022/11/13 14:04:50;;;;;;;3.87;3.40;;;16.10;96.20;;;;;;4965568;28;20645;-77
2022/11/13 14:07:26;;;;;;;4.10;3.40;;;16.10;95.90;;;;;;4964193;28;20454;-75
2022/11/13 14:10:27;;;;;;;4.63;3.20;;;16.10;95.90;;;;;;4963569;28;20477;-76
2022/11/13 14:12:53;;;;;;;2.97;2.60;;;16.00;95.90;;;;;;4964407;28;20471;-76
2022/11/13 14:15:26;;;;;;;3.83;2.77;;;15.90;96.40;;;;;;4955247;29;20422;-80
2022/11/13 14:18:03;;;;;;;6.50;3.43;;;15.90;96.30;;;;;;4955395;29;20853;-76
2022/11/13 14:20:33;;;;;;;5.40;2.80;;;15.80;96.10;;;;;;4953959;29;20422;-74
2022/11/13 14:22:58;;;;;;;4.23;3.33;;;15.90;95.40;;;;;;4954193;29;20469;-75
2022/11/13 14:25:27;;;;;;;3.53;3.10;;;15.80;95.50;;;;;;4956458;28;20806;-76
2022/11/13 14:27:52;;;;;;;3.20;2.90;;;15.80;95.70;;;;;;4962949;28;20222;-76
2022/11/13 14:30:26;;;;;;;3.33;2.90;;;15.80;96.20;;;;;;4955656;28;20437;-77
2022/11/13 14:32:53;;;;;;;3.37;2.70;;;15.70;95.80;;;;;;4954288;29;20221;-77
2022/11/13 14:35:21;;;;;;;3.63;3.10;;;15.70;96.10;;;;;;4962364;28;20480;-76
2022/11/13 14:37:47;;;;;;;2.73;2.50;;;15.70;96.70;;;;;;4957881;28;20434;-76
2022/11/13 14:40:20;;;;;;;4.53;2.87;;;15.70;96.40;;;;;;4954748;28;20433;-80
2022/11/13 14:43:09;;;;;;;4.13;3.27;;;15.70;96.80;;;;;;4962078;28;20474;-74
2022/11/13 14:45:34;;;;;;;4.07;3.17;;;15.60;97.60;;;;;;4963209;28;20910;-74
2022/11/13 14:48:22;;;;;;;2.87;2.67;;;15.60;98.10;;;;;;4961964;28;20438;-74
2022/11/13 14:50:51;;;;;;;5.03;3.00;;;15.60;98.00;;;;;;4962290;28;20258;-74
2022/11/13 14:53:35;;;;;;;3.70;3.00;;;15.60;98.70;;;;;;4962804;28;20425;-73
2022/11/13 14:56:10;;;;;;;3.17;2.73;;;15.50;99.90;;;;;;4964093;28;20456;-74
2022/11/13 14:58:38;;;;;;;3.30;3.00;;;15.40;99.90;;;;;;4963324;28;20460;-75
2022/11/13 15:01:20;;;;;;;4.17;3.83;;;15.40;99.90;;;;;;4970200;28;20795;-75
2022/11/13 15:03:50;;;;;;;3.30;2.90;;;15.30;99.90;;;;;;4972988;28;20500;-75
2022/11/13 15:06:21;;;;;;;5.50;3.83;;;15.30;99.90;;;;;;4973183;28;20479;-75
2022/11/13 15:08:48;;;;;;;4.03;3.40;;;15.20;99.90;;;;;;4973981;28;20436;-73
2022/11/13 15:11:16;;;;;;;3.40;3.10;;;15.10;99.90;;;;;;4976992;28;20444;-74
2022/11/13 15:13:42;;;;;;;3.07;2.87;;;15.10;99.90;;;;;;4976586;28;20425;-77
2022/11/13 15:16:14;;;;;;;3.90;3.40;;;15.00;99.90;;;;;;4976628;28;20476;-76
2022/11/13 15:18:45;;;;;;;5.30;2.80;;;14.90;99.90;;;;;;4977405;28;20708;-75
2022/11/13 15:21:11;;;;;;;3.60;3.10;;;14.80;99.90;;;;;;4977394;28;20425;-74
2022/11/13 15:23:36;;;;;;;4.13;3.53;;;14.80;99.90;;;;;;4977413;28;20484;-75
2022/11/13 15:26:02;;;;;;;5.50;3.23;;;14.70;99.90;;;;;;4971882;28;20291;-75
2022/11/13 15:28:28;;;;;;;4.93;3.03;;;14.60;99.90;;;;;;4958107;28;20208;-76
2022/11/13 15:30:53;;;;;;;6.93;4.20;;;14.50;99.90;;;;;;4958012;28;20257;-78
2022/11/13 15:33:19;;;;;;;14.80;5.40;;;14.40;99.90;;;;;;4958066;29;20602;-77
2022/11/13 15:35:44;;;;;;;7.40;5.57;;;14.30;99.90;;;;;;4958119;29;20179;-77
2022/11/13 15:38:11;;;;;;;6.50;5.53;;;14.20;99.90;;;;;;4957972;29;20221;-77
2022/11/13 15:40:37;;;;;;;12.13;8.30;;;14.10;99.90;;;;;;4958256;29;20206;-77
2022/11/13 15:43:04;;;;;;;8.88;5.95;;;14.10;99.90;;;;;;4957193;29;20487;-77
2022/11/13 15:45:30;;;;;;;9.40;6.67;;;14.00;99.90;;;;;;4960589;28;20265;-78
2022/11/13 15:47:55;;;;;;;10.17;7.17;;;14.00;99.90;;;;;;4965734;28;20873;-78
2022/11/13 15:50:21;;;;;;;7.00;5.70;;;13.90;99.90;;;;;;4963952;28;20649;-76
2022/11/13 15:52:49;;;;;;;10.83;6.60;;;13.70;99.90;;;;;;4971258;28;20189;-76
2022/11/13 15:55:27;;;;;;;6.70;5.80;;;13.70;99.90;;;;;;4977006;28;20188;-74
2022/11/13 15:57:53;;;;;;;6.03;5.40;;;13.50;99.90;;;;;;4977220;28;20429;-74
2022/11/13 16:00:25;;;;;;;6.10;5.30;;;13.50;99.90;;;;;;4976938;28;20899;-76
2022/11/13 16:02:55;;;;;;;8.43;5.70;;;13.30;99.90;;;;;;4976728;28;20821;-75
2022/11/13 16:05:24;;;;;;;5.30;4.77;;;13.30;99.90;;;;;;4966150;28;20433;-78
2022/11/13 16:07:50;;;;;;;7.53;5.73;;;13.20;99.90;;;;;;4967837;28;20435;-76
2022/11/13 16:10:16;;;;;;;6.87;5.30;;;13.10;99.90;;;;;;4966399;28;20951;-77
2022/11/13 16:12:42;;;;;;;7.23;5.90;;;13.00;99.90;;;;;;4971419;28;20425;-78
2022/11/13 16:15:11;;;;;;;9.07;6.50;;;13.00;99.90;;;;;;4976328;28;20437;-77
2022/11/13 16:17:40;;;;;;;6.50;5.00;;;12.90;99.90;;;;;;4976817;28;20170;-77
2022/11/13 16:20:11;;;;;;;6.27;5.07;;;12.80;99.90;;;;;;4975490;28;20457;-75
2022/11/13 16:22:37;;;;;;;6.47;5.70;;;12.80;99.90;;;;;;4976699;28;20481;-76
2022/11/13 16:25:03;;;;;;;9.57;6.37;;;12.80;99.90;;;;;;4959052;28;20488;-75
2022/11/13 16:27:31;;;;;;;7.30;6.03;;;12.60;99.90;;;;;;4957241;29;20206;-76
2022/11/13 16:29:56;;;;;;;7.50;5.90;;;12.60;99.90;;;;;;4957316;29;20521;-75
2022/11/13 16:32:22;;;;;;;6.33;5.60;;;12.50;99.90;;;;;;4956844;29;20979;-76
2022/11/13 16:34:48;;;;;;;7.27;5.73;;;12.50;99.90;;;;;;4959950;28;20179;-77
2022/11/13 16:37:14;;;;;;;9.27;6.43;;;12.40;99.90;;;;;;4957029;29;20285;-74
2022/11/13 16:39:40;;;;;;;7.60;6.23;;;12.40;99.90;;;;;;4957169;29;20190;-75
2022/11/13 16:42:06;;;;;;;8.10;5.50;;;12.30;99.90;;;;;;4956945;29;20470;-75
2022/11/13 16:44:31;;;;;;;15.30;10.73;;;12.30;99.90;;;;;;4958539;28;20634;-75
2022/11/13 16:46:57;;;;;;;7.00;6.30;;;12.20;99.90;;;;;;4965408;28;20598;-77
2022/11/13 16:49:22;;;;;;;7.97;5.90;;;12.20;99.90;;;;;;4967093;28;20185;-77
2022/11/13 16:51:49;;;;;;;7.00;5.13;;;12.10;99.90;;;;;;4965396;28;20181;-77
2022/11/13 16:54:15;;;;;;;8.77;5.53;;;12.00;99.90;;;;;;4965636;28;20178;-77
2022/11/13 16:56:41;;;;;;;9.30;6.33;;;12.00;99.90;;;;;;4966935;28;20456;-77
2022/11/13 16:59:10;;;;;;;8.73;5.27;;;12.00;99.90;;;;;;4965201;28;20167;-75